createdAt,value
2023-04-09T00:01:24.009Z,98660.91
2023-04-09T00:02:55.677Z,98664.34
2023-04-09T00:04:27.439Z,98663.31
2023-04-09T00:05:59.142Z,98663.63
2023-04-09T00:07:30.784Z,98664.72
2023-04-09T00:09:02.431Z,98664.09
2023-04-09T00:10:34.002Z,98663.00
2023-04-09T00:12:05.799Z,98659.25
2023-04-09T00:13:39.610Z,98664.66
2023-04-09T00:15:20.667Z,98667.06
2023-04-09T00:16:59.644Z,98657.03
2023-04-09T00:18:31.201Z,98671.00
2023-04-09T00:20:04.048Z,98667.00
2023-04-09T00:21:35.734Z,98661.41
2023-04-09T00:23:07.377Z,98667.13
2023-04-09T00:24:38.998Z,98659.31
2023-04-09T00:26:10.615Z,98666.41
2023-04-09T00:27:42.669Z,98656.50
2023-04-09T00:29:14.282Z,98650.91
2023-04-09T00:30:45.965Z,98657.53
2023-04-09T00:32:17.649Z,98659.09
2023-04-09T00:33:49.385Z,98658.16
2023-04-09T00:35:21.179Z,98656.28
2023-04-09T00:36:52.901Z,98656.19
2023-04-09T00:38:24.539Z,98656.13
2023-04-09T00:39:56.457Z,98659.09
2023-04-09T00:41:28.154Z,98657.28
2023-04-09T00:42:59.685Z,98655.75
2023-04-09T00:44:31.467Z,98652.91
2023-04-09T00:46:04.467Z,98657.88
2023-04-09T00:47:36.680Z,98647.03
2023-04-09T00:49:08.491Z,98650.91
2023-04-09T00:50:40.610Z,98649.84
2023-04-09T00:52:12.523Z,98655.22
2023-04-09T00:53:44.427Z,98657.34
2023-04-09T00:55:18.219Z,98652.28
2023-04-09T00:56:49.982Z,98654.25
2023-04-09T00:58:21.701Z,98654.31
2023-04-09T00:59:53.264Z,98653.75
2023-04-09T01:01:24.903Z,98650.81
2023-04-09T01:02:58.165Z,98654.31
2023-04-09T01:04:30.275Z,98651.25
2023-04-09T01:06:11.267Z,98660.38
2023-04-09T01:08:01.787Z,98655.03
2023-04-09T01:09:59.717Z,98655.41
2023-04-09T01:11:51.672Z,98655.84
2023-04-09T01:13:55.549Z,98653.59
2023-04-09T01:15:31.354Z,98647.94
2023-04-09T01:17:06.605Z,98652.81
2023-04-09T01:18:41.674Z,98652.31
2023-04-09T01:20:36.135Z,98655.31
2023-04-09T01:22:24.703Z,98652.94
2023-04-09T01:24:31.609Z,98656.97
2023-04-09T01:26:16.065Z,98651.88
2023-04-09T01:28:12.623Z,98652.94
2023-04-09T01:29:51.472Z,98645.47
2023-04-09T01:31:32.953Z,98645.13
2023-04-09T01:33:06.090Z,98645.13
2023-04-09T01:34:38.950Z,98646.91
2023-04-09T01:36:11.479Z,98650.84
2023-04-09T01:37:43.152Z,98645.16
2023-04-09T01:39:15.037Z,98649.53
2023-04-09T01:40:47.301Z,98657.81
2023-04-09T01:42:19.686Z,98655.47
2023-04-09T01:43:52.979Z,98652.94
2023-04-09T01:45:26.019Z,98655.44
2023-04-09T01:46:59.083Z,98652.69
2023-04-09T01:48:32.842Z,98654.94
2023-04-09T01:50:04.866Z,98649.88
2023-04-09T01:51:38.024Z,98657.09
2023-04-09T01:53:09.897Z,98656.16
2023-04-09T01:54:43.138Z,98658.75
2023-04-09T01:56:14.929Z,98656.28
2023-04-09T01:57:46.493Z,98656.03
2023-04-09T01:59:18.106Z,98661.72
2023-04-09T02:00:51.949Z,98659.94
2023-04-09T02:02:31.964Z,98661.47
2023-04-09T02:04:07.944Z,98663.34
2023-04-09T02:05:46.525Z,98669.16
2023-04-09T02:07:27.186Z,98666.91
2023-04-09T02:09:01.756Z,98664.22
2023-04-09T02:10:36.103Z,98657.47
2023-04-09T02:12:13.684Z,98661.00
2023-04-09T02:13:46.122Z,98660.53
2023-04-09T02:15:19.766Z,98655.34
2023-04-09T02:16:53.029Z,98656.31
2023-04-09T02:18:28.560Z,98654.03
2023-04-09T02:20:00.309Z,98646.84
2023-04-09T02:21:32.244Z,98651.56
2023-04-09T02:23:03.811Z,98649.19
2023-04-09T02:24:36.372Z,98648.84
2023-04-09T02:26:07.996Z,98645.31
2023-04-09T02:27:39.642Z,98648.16
2023-04-09T02:29:11.261Z,98647.22
2023-04-09T02:30:42.999Z,98642.59
2023-04-09T02:32:14.563Z,98645.31
2023-04-09T02:33:46.166Z,98646.41
2023-04-09T02:35:17.806Z,98646.16
2023-04-09T02:36:49.446Z,98645.19
2023-04-09T02:38:21.071Z,98650.38
2023-04-09T02:39:52.755Z,98646.13
2023-04-09T02:41:24.850Z,98649.81
2023-04-09T02:42:58.137Z,98650.88
2023-04-09T02:44:29.757Z,98652.03
2023-04-09T02:46:01.988Z,98647.81
2023-04-09T02:47:34.768Z,98651.94
2023-04-09T02:49:06.998Z,98650.50
2023-04-09T02:50:38.641Z,98648.50
2023-04-09T02:52:11.388Z,98652.75
2023-04-09T02:53:43.044Z,98647.78
2023-04-09T02:55:15.317Z,98651.19
2023-04-09T02:56:47.050Z,98657.19
2023-04-09T02:58:18.692Z,98650.50
2023-04-09T02:59:50.295Z,98650.50
2023-04-09T03:01:22.245Z,98656.06
2023-04-09T03:02:54.384Z,98646.16
2023-04-09T03:04:26.360Z,98647.09
2023-04-09T03:05:58.118Z,98646.63
2023-04-09T03:07:29.728Z,98647.34
2023-04-09T03:09:01.311Z,98644.94
2023-04-09T03:10:32.867Z,98636.56
2023-04-09T03:12:04.514Z,98637.38
2023-04-09T03:13:36.094Z,98637.38
2023-04-09T03:15:07.944Z,98638.19
2023-04-09T03:16:39.583Z,98642.94
2023-04-09T03:18:11.182Z,98640.00
2023-04-09T03:19:42.873Z,98644.84
2023-04-09T03:21:15.131Z,98639.63
2023-04-09T03:22:51.939Z,98630.06
2023-04-09T03:24:46.083Z,98630.50
2023-04-09T03:26:17.696Z,98635.38
2023-04-09T03:27:54.287Z,98634.44
2023-04-09T03:29:36.136Z,98628.63
2023-04-09T03:31:07.907Z,98630.16
2023-04-09T03:32:42.391Z,98628.41
2023-04-09T03:34:17.667Z,98621.69
2023-04-09T03:35:50.106Z,98624.13
2023-04-09T03:37:26.849Z,98622.97
2023-04-09T03:39:00.466Z,98622.63
2023-04-09T03:40:42.730Z,98627.81
2023-04-09T03:42:14.341Z,98627.00
2023-04-09T03:43:50.930Z,98626.78
2023-04-09T03:45:26.866Z,98625.34
2023-04-09T03:47:03.891Z,98621.91
2023-04-09T03:48:35.511Z,98626.78
2023-04-09T03:50:07.670Z,98627.34
2023-04-09T03:51:50.773Z,98627.59
2023-04-09T03:53:22.930Z,98625.91
2023-04-09T03:54:54.604Z,98620.00
2023-04-09T03:56:28.877Z,98624.75
2023-04-09T03:58:00.926Z,98624.03
2023-04-09T03:59:36.224Z,98624.25
2023-04-09T04:01:07.818Z,98630.78
2023-04-09T04:02:44.728Z,98630.31
2023-04-09T04:04:16.824Z,98626.50
2023-04-09T04:05:52.976Z,98631.00
2023-04-09T04:07:24.568Z,98620.03
2023-04-09T04:09:00.683Z,98629.81
2023-04-09T04:10:40.989Z,98624.88
2023-04-09T04:12:13.437Z,98632.44
2023-04-09T04:13:56.370Z,98626.78
2023-04-09T04:15:29.122Z,98629.94
2023-04-09T04:17:01.545Z,98634.19
2023-04-09T04:18:35.938Z,98631.97
2023-04-09T04:20:08.413Z,98637.84
2023-04-09T04:21:48.402Z,98627.72
2023-04-09T04:23:20.370Z,98637.75
2023-04-09T04:25:05.424Z,98640.13
2023-04-09T04:26:36.964Z,98642.22
2023-04-09T04:28:08.988Z,98639.53
2023-04-09T04:29:45.238Z,98639.88
2023-04-09T04:31:27.272Z,98643.78
2023-04-09T04:33:02.320Z,98647.22
2023-04-09T04:34:40.741Z,98634.91
2023-04-09T04:36:24.212Z,98644.38
2023-04-09T04:37:57.010Z,98642.84
2023-04-09T04:39:31.270Z,98646.50
2023-04-09T04:41:08.315Z,98646.25
2023-04-09T04:42:43.951Z,98642.56
2023-04-09T04:44:19.438Z,98644.78
2023-04-09T04:45:53.607Z,98643.16
2023-04-09T04:47:28.556Z,98640.75
2023-04-09T04:49:00.215Z,98649.53
2023-04-09T04:50:33.860Z,98652.38
2023-04-09T04:52:11.938Z,98649.44
2023-04-09T04:53:47.503Z,98649.09
2023-04-09T04:55:20.072Z,98643.91
2023-04-09T04:56:52.683Z,98650.88
2023-04-09T04:58:36.652Z,98646.25
2023-04-09T05:00:08.958Z,98660.69
2023-04-09T05:01:41.607Z,98654.31
2023-04-09T05:03:16.529Z,98653.94
2023-04-09T05:05:11.174Z,98648.28
2023-04-09T05:06:51.998Z,98655.84
2023-04-09T05:08:27.511Z,98655.13
2023-04-09T05:10:00.718Z,98656.56
2023-04-09T05:11:37.911Z,98651.94
2023-04-09T05:13:13.351Z,98657.41
2023-04-09T05:14:45.032Z,98648.16
2023-04-09T05:16:18.452Z,98654.22
2023-04-09T05:17:54.487Z,98657.25
2023-04-09T05:19:26.617Z,98655.13
2023-04-09T05:21:05.400Z,98653.34
2023-04-09T05:22:38.557Z,98658.09
2023-04-09T05:24:10.767Z,98659.03
2023-04-09T05:25:42.357Z,98659.16
2023-04-09T05:27:22.163Z,98659.84
2023-04-09T05:28:55.370Z,98654.63
2023-04-09T05:30:28.310Z,98659.25
2023-04-09T05:32:03.126Z,98656.03
2023-04-09T05:33:42.601Z,98657.97
2023-04-09T05:35:21.479Z,98657.34
2023-04-09T05:36:54.163Z,98668.09
2023-04-09T05:38:27.418Z,98660.31
2023-04-09T05:40:02.183Z,98665.97
2023-04-09T05:41:37.372Z,98659.25
2023-04-09T05:43:27.157Z,98659.59
2023-04-09T05:44:58.776Z,98659.34
2023-04-09T05:46:31.378Z,98664.28
2023-04-09T05:48:04.109Z,98664.41
2023-04-09T05:49:36.384Z,98660.38
2023-04-09T05:51:15.533Z,98659.47
2023-04-09T05:52:47.287Z,98663.59
2023-04-09T05:54:19.936Z,98658.28
2023-04-09T05:55:54.606Z,98654.47
2023-04-09T05:57:31.163Z,98659.56
2023-04-09T05:59:06.256Z,98663.09
2023-04-09T06:00:37.935Z,98664.16
2023-04-09T06:02:09.570Z,98661.66
2023-04-09T06:03:41.730Z,98667.72
2023-04-09T06:05:13.468Z,98662.38
2023-04-09T06:06:45.881Z,98666.00
2023-04-09T06:08:17.579Z,98664.28
2023-04-09T06:09:49.342Z,98665.13
2023-04-09T06:11:22.934Z,98666.16
2023-04-09T06:12:54.660Z,98669.53
2023-04-09T06:14:26.311Z,98661.63
2023-04-09T06:15:57.917Z,98657.66
2023-04-09T06:17:29.898Z,98657.66
2023-04-09T06:19:01.574Z,98652.84
2023-04-09T06:20:33.191Z,98658.16
2023-04-09T06:22:04.864Z,98662.00
2023-04-09T06:23:37.070Z,98656.84
2023-04-09T06:25:08.804Z,98658.81
2023-04-09T06:26:40.421Z,98660.06
2023-04-09T06:28:12.216Z,98653.50
2023-04-09T06:29:43.771Z,98650.88
2023-04-09T06:31:15.697Z,98652.44
2023-04-09T06:32:54.465Z,98644.78
2023-04-09T06:34:27.007Z,98643.41
2023-04-09T06:35:58.992Z,98643.72
2023-04-09T06:37:30.918Z,98646.66
2023-04-09T06:39:03.037Z,98649.47
2023-04-09T06:40:34.916Z,98643.81
2023-04-09T06:42:06.527Z,98655.78
2023-04-09T06:44:00.056Z,98649.13
2023-04-09T06:45:32.614Z,98657.66
2023-04-09T06:47:04.251Z,98657.53
2023-04-09T06:48:36.161Z,98661.81
2023-04-09T06:50:08.335Z,98667.56
2023-04-09T06:51:39.914Z,98661.25
2023-04-09T06:53:11.582Z,98669.00
2023-04-09T06:54:44.390Z,98663.91
2023-04-09T06:56:16.267Z,98663.59
2023-04-09T06:57:47.980Z,98672.28
2023-04-09T06:59:19.510Z,98671.50
2023-04-09T07:00:51.163Z,98667.13
2023-04-09T07:02:23.258Z,98662.03
2023-04-09T07:03:55.322Z,98665.88
2023-04-09T07:05:27.314Z,98673.00
2023-04-09T07:07:00.131Z,98671.38
2023-04-09T07:08:31.878Z,98670.06
2023-04-09T07:10:03.625Z,98667.00
2023-04-09T07:11:35.240Z,98672.72
2023-04-09T07:13:07.235Z,98665.50
2023-04-09T07:14:38.847Z,98660.81
2023-04-09T07:16:10.637Z,98662.22
2023-04-09T07:17:42.651Z,98659.31
2023-04-09T07:19:14.224Z,98660.16
2023-04-09T07:20:45.967Z,98666.97
2023-04-09T07:22:18.289Z,98663.91
2023-04-09T07:23:49.984Z,98665.66
2023-04-09T07:25:21.620Z,98671.59
2023-04-09T07:26:53.384Z,98669.75
2023-04-09T07:28:25.025Z,98667.03
2023-04-09T07:30:00.379Z,98678.41
2023-04-09T07:31:35.300Z,98677.19
2023-04-09T07:33:07.547Z,98676.06
2023-04-09T07:34:39.182Z,98672.44
2023-04-09T07:36:11.109Z,98676.44
2023-04-09T07:37:42.816Z,98670.75
2023-04-09T07:39:14.392Z,98681.88
2023-04-09T07:40:46.089Z,98681.50
2023-04-09T07:42:17.767Z,98675.34
2023-04-09T07:43:49.399Z,98679.50
2023-04-09T07:45:21.211Z,98679.19
2023-04-09T07:46:52.874Z,98679.41
2023-04-09T07:48:24.548Z,98672.22
2023-04-09T07:49:56.252Z,98688.94
2023-04-09T07:51:28.068Z,98674.66
2023-04-09T07:52:59.674Z,98675.41
2023-04-09T07:54:31.849Z,98673.78
2023-04-09T07:56:03.819Z,98671.41
2023-04-09T07:57:35.475Z,98666.94
2023-04-09T07:59:07.204Z,98672.78
2023-04-09T08:00:38.875Z,98671.88
2023-04-09T08:02:13.449Z,98667.88
2023-04-09T08:03:46.763Z,98673.50
2023-04-09T08:05:18.568Z,98679.06
2023-04-09T08:06:51.196Z,98670.47
2023-04-09T08:08:22.946Z,98658.22
2023-04-09T08:09:54.594Z,98657.59
2023-04-09T08:11:26.409Z,98662.78
2023-04-09T08:12:58.020Z,98654.34
2023-04-09T08:14:29.602Z,98655.00
2023-04-09T08:16:02.361Z,98660.59
2023-04-09T08:17:34.118Z,98666.00
2023-04-09T08:19:05.809Z,98662.25
2023-04-09T08:20:37.938Z,98674.41
2023-04-09T08:22:09.543Z,98665.50
2023-04-09T08:23:41.171Z,98673.66
2023-04-09T08:25:12.736Z,98686.13
2023-04-09T08:26:44.948Z,98690.97
2023-04-09T08:28:16.531Z,98690.84
2023-04-09T08:29:48.245Z,98684.03
2023-04-09T08:31:19.854Z,98687.84
2023-04-09T08:32:51.545Z,98686.63
2023-04-09T08:34:23.235Z,98694.41
2023-04-09T08:35:54.920Z,98692.59
2023-04-09T08:37:26.818Z,98694.59
2023-04-09T08:39:00.461Z,98694.09
2023-04-09T08:40:35.892Z,98689.50
2023-04-09T08:42:08.197Z,98696.72
2023-04-09T08:43:56.366Z,98703.31
2023-04-09T08:45:29.969Z,98700.63
2023-04-09T08:47:02.620Z,98699.19
2023-04-09T08:48:34.342Z,98704.44
2023-04-09T08:50:06.326Z,98699.19
2023-04-09T08:51:39.396Z,98703.78
2023-04-09T08:53:24.851Z,98702.22
2023-04-09T08:54:56.787Z,98704.25
2023-04-09T08:56:31.567Z,98709.81
2023-04-09T08:58:10.566Z,98705.97
2023-04-09T08:59:42.554Z,98711.00
2023-04-09T09:01:27.444Z,98719.88
2023-04-09T09:03:11.840Z,98716.50
2023-04-09T09:04:48.597Z,98720.69
2023-04-09T09:06:32.917Z,98720.00
2023-04-09T09:08:05.671Z,98715.91
2023-04-09T09:09:52.737Z,98718.69
2023-04-09T09:11:28.186Z,98710.63
2023-04-09T09:12:59.950Z,98716.34
2023-04-09T09:14:33.291Z,98712.00
2023-04-09T09:16:16.068Z,98722.00
2023-04-09T09:17:56.373Z,98715.50
2023-04-09T09:19:33.606Z,98710.28
2023-04-09T09:21:16.316Z,98709.47
2023-04-09T09:22:55.082Z,98704.56
2023-04-09T09:24:27.329Z,98706.53
2023-04-09T09:25:59.436Z,98694.19
2023-04-09T09:27:37.038Z,98699.00
2023-04-09T09:29:09.255Z,98707.38
2023-04-09T09:30:41.043Z,98711.53
2023-04-09T09:32:13.566Z,98704.53
2023-04-09T09:33:46.753Z,98703.25
2023-04-09T09:35:18.428Z,98715.03
2023-04-09T09:36:50.191Z,98716.31
2023-04-09T09:38:21.966Z,98708.88
2023-04-09T09:39:54.228Z,98705.59
2023-04-09T09:41:25.997Z,98702.13
2023-04-09T09:42:57.953Z,98704.28
2023-04-09T09:44:33.444Z,98713.63
2023-04-09T09:46:05.520Z,98705.06
2023-04-09T09:47:37.525Z,98712.53
2023-04-09T09:49:09.575Z,98702.72
2023-04-09T09:50:42.543Z,98700.16
2023-04-09T09:52:14.440Z,98701.47
2023-04-09T09:53:49.748Z,98711.88
2023-04-09T09:55:24.168Z,98701.16
2023-04-09T09:57:01.043Z,98702.59
2023-04-09T09:58:38.750Z,98706.09
2023-04-09T10:00:13.476Z,98710.22
2023-04-09T10:01:46.579Z,98702.16
2023-04-09T10:03:23.508Z,98712.00
2023-04-09T10:04:55.317Z,98703.00
2023-04-09T10:06:27.738Z,98707.75
2023-04-09T10:08:01.687Z,98701.81
2023-04-09T10:09:35.814Z,98700.31
2023-04-09T10:11:07.882Z,98706.16
2023-04-09T10:12:41.844Z,98705.28
2023-04-09T10:14:14.145Z,98710.28
2023-04-09T10:15:45.940Z,98707.75
2023-04-09T10:17:17.816Z,98706.41
2023-04-09T10:18:49.783Z,98716.56
2023-04-09T10:20:30.315Z,98710.06
2023-04-09T10:22:08.788Z,98715.00
2023-04-09T10:23:42.884Z,98708.53
2023-04-09T10:25:14.973Z,98714.13
2023-04-09T10:26:47.056Z,98730.44
2023-04-09T10:28:19.210Z,98728.78
2023-04-09T10:29:52.125Z,98722.13
2023-04-09T10:31:23.780Z,98723.09
2023-04-09T10:32:55.396Z,98724.31
2023-04-09T10:34:28.635Z,98719.94
2023-04-09T10:36:04.467Z,98719.31
2023-04-09T10:37:36.062Z,98720.56
2023-04-09T10:39:15.058Z,98715.25
2023-04-09T10:40:50.925Z,98717.78
2023-04-09T10:42:36.627Z,98714.81
2023-04-09T10:44:20.681Z,98713.19
2023-04-09T10:45:54.197Z,98707.34
2023-04-09T10:47:36.586Z,98705.72
2023-04-09T10:49:13.495Z,98706.25
2023-04-09T10:50:45.262Z,98702.19
2023-04-09T10:52:17.540Z,98701.91
2023-04-09T10:53:54.216Z,98684.22
2023-04-09T10:55:42.458Z,98689.41
2023-04-09T10:57:19.467Z,98689.97
2023-04-09T10:58:51.578Z,98690.59
2023-04-09T11:00:23.374Z,98684.03
2023-04-09T11:01:55.128Z,98685.84
2023-04-09T11:03:32.689Z,98688.91
2023-04-09T11:05:12.469Z,98687.50
2023-04-09T11:06:45.336Z,98685.47
2023-04-09T11:08:17.088Z,98687.53
2023-04-09T11:09:48.653Z,98687.03
2023-04-09T11:11:26.685Z,98684.53
2023-04-09T11:12:58.374Z,98683.34
2023-04-09T11:14:29.943Z,98690.03
2023-04-09T11:16:04.071Z,98686.34
2023-04-09T11:17:36.981Z,98681.09
2023-04-09T11:19:10.605Z,98677.78
2023-04-09T11:20:42.912Z,98675.00
2023-04-09T11:22:15.769Z,98681.88
2023-04-09T11:23:53.596Z,98676.91
2023-04-09T11:25:27.504Z,98674.94
2023-04-09T11:27:02.125Z,98678.13
2023-04-09T11:28:35.147Z,98677.38
2023-04-09T11:30:07.440Z,98674.75
2023-04-09T11:31:39.074Z,98676.47
2023-04-09T11:33:10.814Z,98669.81
2023-04-09T11:34:42.403Z,98671.66
2023-04-09T11:36:14.113Z,98665.19
2023-04-09T11:37:46.483Z,98668.75
2023-04-09T11:39:18.091Z,98665.78
2023-04-09T11:40:50.296Z,98673.88
2023-04-09T11:42:22.214Z,98677.13
2023-04-09T11:43:53.793Z,98670.28
2023-04-09T11:45:28.339Z,98668.22
2023-04-09T11:47:00.300Z,98668.56
2023-04-09T11:48:31.934Z,98669.16
2023-04-09T11:50:03.819Z,98677.97
2023-04-09T11:51:36.021Z,98677.59
2023-04-09T11:53:21.176Z,98679.56
2023-04-09T11:54:52.732Z,98664.06
2023-04-09T11:56:25.265Z,98666.06
2023-04-09T11:58:00.747Z,98672.38
2023-04-09T11:59:32.455Z,98661.72
2023-04-09T12:01:04.063Z,98669.78
2023-04-09T12:02:38.644Z,98666.28
2023-04-09T12:04:11.226Z,98673.00
2023-04-09T12:05:50.532Z,98662.13
2023-04-09T12:07:22.685Z,98666.66
2023-04-09T12:08:59.334Z,98662.09
2023-04-09T12:10:34.361Z,98658.38
2023-04-09T12:12:08.916Z,98657.44
2023-04-09T12:13:43.467Z,98671.38
2023-04-09T12:15:25.520Z,98665.09
2023-04-09T12:16:57.199Z,98667.38
2023-04-09T12:18:28.992Z,98665.63
2023-04-09T12:20:00.798Z,98665.94
2023-04-09T12:21:50.382Z,98653.75
2023-04-09T12:23:21.992Z,98653.31
2023-04-09T12:24:55.125Z,98659.44
2023-04-09T12:26:26.639Z,98650.75
2023-04-09T12:27:58.732Z,98648.06
2023-04-09T12:29:30.640Z,98649.75
2023-04-09T12:31:03.496Z,98649.69
2023-04-09T12:32:35.308Z,98650.06
2023-04-09T12:34:06.936Z,98645.03
2023-04-09T12:35:38.825Z,98649.03
2023-04-09T12:37:10.662Z,98643.97
2023-04-09T12:38:42.168Z,98644.16
2023-04-09T12:40:14.265Z,98644.59
2023-04-09T12:41:45.772Z,98641.16
2023-04-09T12:43:17.352Z,98625.31
2023-04-09T12:44:48.968Z,98636.31
2023-04-09T12:46:20.709Z,98625.78
2023-04-09T12:47:52.917Z,98626.88
2023-04-09T12:49:24.638Z,98638.97
2023-04-09T12:50:56.485Z,98633.16
2023-04-09T12:52:28.055Z,98628.34
2023-04-09T12:53:59.659Z,98625.41
2023-04-09T12:55:31.661Z,98624.22
2023-04-09T12:57:03.440Z,98625.06
2023-04-09T12:58:35.526Z,98625.25
2023-04-09T13:00:07.981Z,98621.25
2023-04-09T13:01:41.994Z,98623.63
2023-04-09T13:03:16.959Z,98617.69
2023-04-09T13:04:49.187Z,98611.56
2023-04-09T13:06:22.402Z,98605.56
2023-04-09T13:07:53.962Z,98608.28
2023-04-09T13:09:25.773Z,98606.09
2023-04-09T13:10:57.352Z,98609.69
2023-04-09T13:12:28.941Z,98602.75
2023-04-09T13:14:00.523Z,98597.38
2023-04-09T13:15:32.257Z,98586.59
2023-04-09T13:17:04.020Z,98589.19
2023-04-09T13:18:35.657Z,98588.88
2023-04-09T13:20:08.205Z,98586.25
2023-04-09T13:21:39.831Z,98594.94
2023-04-09T13:23:11.469Z,98580.53
2023-04-09T13:24:43.380Z,98581.13
2023-04-09T13:26:15.014Z,98576.41
2023-04-09T13:27:46.695Z,98583.88
2023-04-09T13:29:18.290Z,98575.28
2023-04-09T13:30:49.922Z,98570.53
2023-04-09T13:32:23.437Z,98587.59
2023-04-09T13:33:55.287Z,98577.56
2023-04-09T13:35:27.261Z,98583.03
2023-04-09T13:36:58.996Z,98578.69
2023-04-09T13:38:30.673Z,98582.75
2023-04-09T13:40:02.291Z,98573.72
2023-04-09T13:41:34.181Z,98564.13
2023-04-09T13:43:05.999Z,98571.72
2023-04-09T13:44:37.554Z,98576.13
2023-04-09T13:46:09.125Z,98573.34
2023-04-09T13:47:41.250Z,98578.13
2023-04-09T13:49:12.989Z,98569.13
2023-04-09T13:50:44.626Z,98570.00
2023-04-09T13:52:16.410Z,98555.06
2023-04-09T13:53:48.952Z,98562.84
2023-04-09T13:55:20.692Z,98569.16
2023-04-09T13:56:52.337Z,98553.22
2023-04-09T13:58:24.039Z,98559.22
2023-04-09T13:59:55.708Z,98560.19
2023-04-09T14:01:28.297Z,98556.47
2023-04-09T14:03:00.038Z,98562.25
2023-04-09T14:04:32.011Z,98553.41
2023-04-09T14:06:04.460Z,98553.63
2023-04-09T14:07:36.464Z,98556.06
2023-04-09T14:09:08.916Z,98553.00
2023-04-09T14:10:40.520Z,98547.59
2023-04-09T14:12:12.093Z,98549.00
2023-04-09T14:13:43.724Z,98542.03
2023-04-09T14:15:15.467Z,98532.94
2023-04-09T14:16:47.096Z,98535.31
2023-04-09T14:18:18.683Z,98535.38
2023-04-09T14:19:50.325Z,98540.03
2023-04-09T14:21:21.943Z,98535.75
2023-04-09T14:22:53.998Z,98539.34
2023-04-09T14:24:25.717Z,98527.66
2023-04-09T14:25:57.315Z,98532.13
2023-04-09T14:27:28.959Z,98530.22
2023-04-09T14:29:00.597Z,98534.78
2023-04-09T14:30:32.219Z,98531.03
2023-04-09T14:32:03.875Z,98526.41
2023-04-09T14:33:35.610Z,98531.69
2023-04-09T14:35:07.516Z,98523.94
2023-04-09T14:36:39.060Z,98530.41
2023-04-09T14:38:10.752Z,98521.66
2023-04-09T14:39:42.289Z,98523.94
2023-04-09T14:41:13.900Z,98530.69
2023-04-09T14:42:45.681Z,98535.22
2023-04-09T14:44:17.622Z,98524.75
2023-04-09T14:45:49.202Z,98526.75
2023-04-09T14:47:21.043Z,98520.56
2023-04-09T14:48:53.362Z,98524.38
2023-04-09T14:50:25.270Z,98512.53
2023-04-09T14:51:56.918Z,98522.63
2023-04-09T14:53:28.507Z,98513.44
2023-04-09T14:55:00.022Z,98515.63
2023-04-09T14:56:31.657Z,98512.38
2023-04-09T14:58:04.625Z,98520.31
2023-04-09T14:59:36.682Z,98515.53
2023-04-09T15:01:08.403Z,98513.94
2023-04-09T15:02:40.360Z,98515.47
2023-04-09T15:04:12.200Z,98521.31
2023-04-09T15:05:43.884Z,98509.25
2023-04-09T15:07:15.483Z,98515.75
2023-04-09T15:08:47.118Z,98511.53
2023-04-09T15:10:19.033Z,98514.63
2023-04-09T15:11:50.650Z,98516.47
2023-04-09T15:13:22.306Z,98516.56
2023-04-09T15:14:55.688Z,98517.94
2023-04-09T15:16:28.784Z,98520.94
2023-04-09T15:18:05.585Z,98521.41
2023-04-09T15:19:37.434Z,98524.00
2023-04-09T15:21:08.992Z,98521.72
2023-04-09T15:22:40.846Z,98523.84
2023-04-09T15:24:12.386Z,98516.56
2023-04-09T15:25:44.103Z,98532.31
2023-04-09T15:27:15.995Z,98523.66
2023-04-09T15:28:48.096Z,98518.81
2023-04-09T15:30:19.718Z,98516.84
2023-04-09T15:31:55.032Z,98517.66
2023-04-09T15:33:27.941Z,98520.31
2023-04-09T15:35:00.816Z,98513.47
2023-04-09T15:36:32.585Z,98511.50
2023-04-09T15:38:04.207Z,98514.34
2023-04-09T15:39:36.068Z,98513.66
2023-04-09T15:41:07.804Z,98523.44
2023-04-09T15:42:39.406Z,98521.91
2023-04-09T15:44:11.520Z,98524.28
2023-04-09T15:45:43.857Z,98514.50
2023-04-09T15:47:15.626Z,98518.94
2023-04-09T15:48:47.323Z,98508.22
2023-04-09T15:50:19.584Z,98505.03
2023-04-09T15:51:51.222Z,98500.88
2023-04-09T15:53:26.704Z,98504.44
2023-04-09T15:54:58.332Z,98499.06
2023-04-09T15:56:30.045Z,98506.66
2023-04-09T15:58:01.819Z,98502.63
2023-04-09T15:59:33.484Z,98502.97
2023-04-09T16:01:08.856Z,98499.16
2023-04-09T16:02:40.931Z,98505.69
2023-04-09T16:04:12.703Z,98504.41
2023-04-09T16:05:44.533Z,98509.59
2023-04-09T16:07:16.489Z,98503.84
2023-04-09T16:08:48.130Z,98512.41
2023-04-09T16:10:19.866Z,98509.59
2023-04-09T16:11:51.652Z,98510.09
2023-04-09T16:13:23.220Z,98503.88
2023-04-09T16:14:54.940Z,98502.22
2023-04-09T16:16:26.559Z,98503.75
2023-04-09T16:17:58.288Z,98510.97
2023-04-09T16:19:29.981Z,98514.25
2023-04-09T16:21:01.620Z,98504.13
2023-04-09T16:22:33.563Z,98503.84
2023-04-09T16:24:05.354Z,98508.38
2023-04-09T16:25:36.998Z,98510.69
2023-04-09T16:27:08.727Z,98509.91
2023-04-09T16:28:40.430Z,98514.06
2023-04-09T16:30:12.248Z,98507.00
2023-04-09T16:31:44.099Z,98506.06
2023-04-09T16:33:15.892Z,98511.69
2023-04-09T16:34:47.522Z,98512.53
2023-04-09T16:36:19.096Z,98515.97
2023-04-09T16:37:51.973Z,98510.06
2023-04-09T16:39:23.632Z,98512.66
2023-04-09T16:40:56.210Z,98507.09
2023-04-09T16:42:28.128Z,98507.75
2023-04-09T16:44:00.134Z,98515.16
2023-04-09T16:45:32.093Z,98512.19
2023-04-09T16:47:05.456Z,98513.00
2023-04-09T16:48:41.618Z,98510.38
2023-04-09T16:50:13.567Z,98514.47
2023-04-09T16:51:46.196Z,98513.19
2023-04-09T16:53:17.952Z,98513.34
2023-04-09T16:54:49.739Z,98510.38
2023-04-09T16:56:21.346Z,98515.16
2023-04-09T16:57:55.939Z,98517.47
2023-04-09T16:59:27.683Z,98517.50
2023-04-09T17:00:59.349Z,98519.28
2023-04-09T17:02:31.566Z,98521.97
2023-04-09T17:04:03.654Z,98515.41
2023-04-09T17:05:35.547Z,98516.09
2023-04-09T17:07:07.265Z,98517.06
2023-04-09T17:08:38.801Z,98519.03
2023-04-09T17:10:10.739Z,98514.09
2023-04-09T17:11:42.388Z,98509.50
2023-04-09T17:13:14.083Z,98501.97
2023-04-09T17:14:46.046Z,98504.91
2023-04-09T17:16:18.452Z,98503.28
2023-04-09T17:17:52.455Z,98503.63
2023-04-09T17:19:24.179Z,98505.94
2023-04-09T17:20:55.932Z,98505.31
2023-04-09T17:22:27.506Z,98502.47
2023-04-09T17:23:59.749Z,98512.38
2023-04-09T17:25:31.342Z,98513.00
2023-04-09T17:27:07.254Z,98508.25
2023-04-09T17:28:38.725Z,98515.19
2023-04-09T17:30:11.055Z,98510.09
2023-04-09T17:31:43.270Z,98505.34
2023-04-09T17:33:14.970Z,98514.38
2023-04-09T17:34:50.599Z,98514.72
2023-04-09T17:36:23.009Z,98518.97
2023-04-09T17:37:55.248Z,98517.97
2023-04-09T17:39:29.291Z,98523.41
2023-04-09T17:41:01.186Z,98509.78
2023-04-09T17:42:32.862Z,98512.72
2023-04-09T17:44:04.560Z,98515.53
2023-04-09T17:45:36.289Z,98523.44
2023-04-09T17:47:07.975Z,98525.41
2023-04-09T17:48:40.192Z,98524.56
2023-04-09T17:50:11.937Z,98522.94
2023-04-09T17:51:44.621Z,98519.16
2023-04-09T17:53:16.626Z,98525.56
2023-04-09T17:54:50.564Z,98531.00
2023-04-09T17:56:25.174Z,98541.00
2023-04-09T17:57:57.046Z,98538.19
2023-04-09T17:59:29.064Z,98538.38
2023-04-09T18:01:01.331Z,98543.00
2023-04-09T18:02:33.461Z,98549.41
2023-04-09T18:04:05.576Z,98548.41
2023-04-09T18:05:38.274Z,98548.53
2023-04-09T18:07:10.080Z,98552.44
2023-04-09T18:08:43.391Z,98548.63
2023-04-09T18:10:15.056Z,98554.19
2023-04-09T18:11:47.289Z,98558.63
2023-04-09T18:13:18.890Z,98561.19
2023-04-09T18:14:50.701Z,98558.72
2023-04-09T18:16:23.368Z,98554.28
2023-04-09T18:17:55.495Z,98563.00
2023-04-09T18:19:27.208Z,98562.13